createdAt,value
2023-08-04T00:06:03.668Z,1011.9
2023-08-04T00:12:09.831Z,1011.8
2023-08-04T00:18:15.446Z,1011.5
2023-08-04T00:24:21.620Z,1011.7
2023-08-04T00:30:27.266Z,1011.8
2023-08-04T00:36:32.768Z,1011.7
2023-08-04T00:42:38.945Z,1011.7
2023-08-04T00:48:43.984Z,1011.7
2023-08-04T00:54:49.512Z,1011.7
2023-08-04T01:00:55.275Z,1011.7
2023-08-04T01:07:00.901Z,1011.4
2023-08-04T01:13:06.229Z,1011.7
2023-08-04T01:19:12.196Z,1011.7
2023-08-04T01:25:18.225Z,1011.7
2023-08-04T01:31:23.945Z,1011.6
2023-08-04T01:37:29.814Z,1011.5
2023-08-04T01:43:35.505Z,1011.5
2023-08-04T01:49:41.070Z,1011.3
2023-08-04T01:55:46.852Z,1011.2
2023-08-04T02:01:52.460Z,1011.1
2023-08-04T02:07:58.824Z,1011.2
2023-08-04T02:14:04.455Z,1011
2023-08-04T02:20:10.176Z,1011.2
2023-08-04T02:26:16.155Z,1011.3
2023-08-04T02:32:21.605Z,1011.3
2023-08-04T02:38:27.531Z,1011
2023-08-04T02:44:33.163Z,1010.8
2023-08-04T02:50:38.663Z,1011
2023-08-04T02:56:44.439Z,1011.4
2023-08-04T03:02:50.923Z,1011.4
2023-08-04T03:08:57.207Z,1011.4
2023-08-04T03:15:03.187Z,1011.4
2023-08-04T03:21:08.257Z,1011.4
2023-08-04T03:27:14.155Z,1011.4
2023-08-04T03:33:20.127Z,1011.4
2023-08-04T03:39:26.315Z,1011.6
2023-08-04T03:45:32.142Z,1011.7
2023-08-04T03:51:37.286Z,1011.6
2023-08-04T03:57:43.470Z,1011.7
2023-08-04T04:03:49.482Z,1011.7
2023-08-04T04:09:55.482Z,1011.5
2023-08-04T04:16:00.982Z,1011.4
2023-08-04T04:22:06.764Z,1011.4
2023-08-04T04:28:13.149Z,1011.5
2023-08-04T04:34:18.277Z,1011.8
2023-08-04T04:40:23.712Z,1012
2023-08-04T04:46:29.926Z,1011.9
2023-08-04T04:52:36.256Z,1011.7
2023-08-04T04:58:42.879Z,1011.7
2023-08-04T05:04:49.127Z,1011.8
2023-08-04T05:10:56.057Z,1011.6
2023-08-04T05:17:02.672Z,1011.6
2023-08-04T05:23:10.783Z,1011.5
2023-08-04T05:29:18.133Z,1011.7
2023-08-04T05:35:23.944Z,1011.9
2023-08-04T05:41:29.672Z,1011.9
2023-08-04T05:47:35.515Z,1011.9
2023-08-04T05:53:41.622Z,1011.8
2023-08-04T05:59:47.619Z,1011.8
2023-08-04T06:05:53.011Z,1011.9
2023-08-04T06:11:58.828Z,1011.8
2023-08-04T06:18:04.996Z,1011.9
2023-08-04T06:24:10.970Z,1011.9
2023-08-04T06:30:16.710Z,1011.8
2023-08-04T06:36:22.502Z,1011.8
2023-08-04T06:42:27.868Z,1011.8
2023-08-04T06:48:34.456Z,1011.9
2023-08-04T06:54:40.455Z,1012
2023-08-04T07:00:45.877Z,1012
2023-08-04T07:06:51.981Z,1012.1
2023-08-04T07:12:58.190Z,1012.1
2023-08-04T07:19:04.784Z,1012.1
2023-08-04T07:25:11.374Z,1012.1
2023-08-04T07:31:17.521Z,1012.1
2023-08-04T07:37:23.427Z,1012
2023-08-04T07:43:29.115Z,1012.1
2023-08-04T07:49:35.123Z,1012.2
2023-08-04T07:55:41.162Z,1012.1
2023-08-04T08:01:47.896Z,1012.2
2023-08-04T08:07:53.902Z,1012.1
2023-08-04T08:13:59.583Z,1012
2023-08-04T08:20:04.849Z,1012
2023-08-04T08:26:10.403Z,1012
2023-08-04T08:32:15.754Z,1012
2023-08-04T08:38:21.756Z,1011.9
2023-08-04T08:44:27.789Z,1011.9
2023-08-04T08:50:33.511Z,1011.9
2023-08-04T08:56:39.303Z,1011.9
2023-08-04T09:02:44.880Z,1012
2023-08-04T09:08:50.846Z,1011.9
2023-08-04T09:14:56.426Z,1011.8
2023-08-04T09:21:02.405Z,1012
2023-08-04T09:27:07.842Z,1011.9
2023-08-04T09:33:13.854Z,1011.9
2023-08-04T09:39:20.023Z,1011.9
2023-08-04T09:45:25.729Z,1011.8
2023-08-04T09:51:32.115Z,1011.9
2023-08-04T09:57:37.909Z,1011.9
2023-08-04T10:03:43.953Z,1011.8
2023-08-04T10:09:50.065Z,1011.8
2023-08-04T10:15:55.924Z,1011.7
2023-08-04T10:22:02.514Z,1011.8
2023-08-04T10:28:08.070Z,1011.9
2023-08-04T10:34:14.424Z,1011.7
2023-08-04T10:40:19.629Z,1011.9
2023-08-04T10:46:25.418Z,1012
2023-08-04T10:52:35.109Z,1011.9
2023-08-04T10:58:41.051Z,1012.1
2023-08-04T11:04:47.008Z,1012.5
2023-08-04T11:10:52.877Z,1012.6
2023-08-04T11:16:59.417Z,1012.6
2023-08-04T11:23:05.599Z,1012.4
2023-08-04T11:29:11.765Z,1012.4
2023-08-04T11:35:17.750Z,1012.2
2023-08-04T11:41:23.918Z,1012
2023-08-04T11:47:29.911Z,1011.9
2023-08-04T11:53:35.878Z,1011.9
2023-08-04T11:59:41.567Z,1012
2023-08-04T12:05:47.466Z,1012
2023-08-04T12:11:53.531Z,1012.1
2023-08-04T12:17:59.494Z,1012.1
2023-08-04T12:24:05.808Z,1012
2023-08-04T12:30:11.427Z,1011.9
2023-08-04T12:36:17.392Z,1011.8
2023-08-04T12:42:23.112Z,1011.8
2023-08-04T12:48:28.894Z,1011.8
2023-08-04T12:54:34.947Z,1011.9
2023-08-04T13:00:40.476Z,1011.9
2023-08-04T13:06:45.837Z,1011.9
2023-08-04T13:12:51.480Z,1011.9
2023-08-04T13:18:56.799Z,1011.8
2023-08-04T13:25:02.707Z,1011.8
2023-08-04T13:31:08.586Z,1011.9
2023-08-04T13:37:14.579Z,1011.9
2023-08-04T13:43:21.123Z,1011.9
2023-08-04T13:49:27.088Z,1011.9
2023-08-04T13:55:32.683Z,1012
2023-08-04T14:01:39.160Z,1012.1
2023-08-04T14:07:45.535Z,1012.1
2023-08-04T14:13:51.450Z,1012.2
2023-08-04T14:19:57.363Z,1012
2023-08-04T14:26:03.658Z,1012
2023-08-04T14:32:09.888Z,1012.1
2023-08-04T14:38:15.443Z,1012.1
2023-08-04T14:44:21.257Z,1012.1
2023-08-04T14:50:26.796Z,1011.9
2023-08-04T14:56:32.721Z,1011.8
2023-08-04T15:02:39.048Z,1012
2023-08-04T15:08:44.877Z,1011.8
2023-08-04T15:14:50.356Z,1011.8
2023-08-04T15:20:56.033Z,1011.8
2023-08-04T15:27:02.424Z,1011.8
2023-08-04T15:33:08.241Z,1011.9
2023-08-04T15:39:14.313Z,1011.9
2023-08-04T15:45:23.912Z,1011.8
2023-08-04T15:51:29.423Z,1011.8
2023-08-04T15:57:34.789Z,1011.8
2023-08-04T16:03:40.801Z,1011.7
2023-08-04T16:09:47.025Z,1011.7
2023-08-04T16:15:52.953Z,1011.8
2023-08-04T16:21:59.349Z,1011.8
2023-08-04T16:28:04.736Z,1011.9
2023-08-04T16:34:10.892Z,1011.9
2023-08-04T16:40:19.557Z,1012.1
2023-08-04T16:46:25.356Z,1012.2
2023-08-04T16:52:31.518Z,1012.3
2023-08-04T16:58:37.309Z,1012.3
2023-08-04T17:04:43.496Z,1012.2
2023-08-04T17:10:48.713Z,1012
2023-08-04T17:16:54.669Z,1011.9
2023-08-04T17:22:59.948Z,1011.9
2023-08-04T17:29:05.586Z,1012
2023-08-04T17:35:11.560Z,1012.2
2023-08-04T17:41:19.622Z,1012.4
2023-08-04T17:47:25.610Z,1012.4
2023-08-04T17:53:31.210Z,1012.5
2023-08-04T17:59:36.183Z,1012.5
2023-08-04T18:05:42.119Z,1012.5
2023-08-04T18:11:48.078Z,1012.6
2023-08-04T18:17:54.159Z,1012.6
2023-08-04T18:23:59.838Z,1012.7
2023-08-04T18:30:06.029Z,1012.8
2023-08-04T18:36:11.801Z,1012.9
2023-08-04T18:42:17.597Z,1013
2023-08-04T18:48:23.358Z,1013.1
2023-08-04T18:54:29.155Z,1013.1
2023-08-04T19:00:34.725Z,1013
2023-08-04T19:06:40.824Z,1013.1
2023-08-04T19:12:46.113Z,1013.2
2023-08-04T19:18:53.513Z,1013.1
2023-08-04T19:24:59.829Z,1013.1
2023-08-04T19:31:05.879Z,1013
2023-08-04T19:37:11.241Z,1013.1
2023-08-04T19:43:18.638Z,1013.1
2023-08-04T19:49:25.713Z,1013
2023-08-04T19:55:49.032Z,1012.8
2023-08-04T20:02:13.651Z,1012.9
2023-08-04T20:08:21.400Z,1013
2023-08-04T20:14:27.966Z,1013
2023-08-04T20:20:34.805Z,1013
2023-08-04T20:26:41.370Z,1013.1
2023-08-04T20:32:48.064Z,1013.3
2023-08-04T20:38:53.834Z,1013.3
2023-08-04T20:45:00.370Z,1013.3
2023-08-04T20:51:07.988Z,1013.4
2023-08-04T20:57:15.173Z,1013.5
2023-08-04T21:03:22.012Z,1013.5
2023-08-04T21:09:28.836Z,1013.5
2023-08-04T21:15:35.217Z,1013.5
2023-08-04T21:21:42.270Z,1013.4
2023-08-04T21:27:48.212Z,1013.4
2023-08-04T21:33:54.383Z,1013.4
2023-08-04T21:40:00.206Z,1013.3
2023-08-04T21:46:05.750Z,1013.3
2023-08-04T21:52:11.722Z,1013.2
2023-08-04T21:58:17.323Z,1013.4
2023-08-04T22:04:23.318Z,1013.5
2023-08-04T22:10:28.659Z,1013.5
2023-08-04T22:16:34.067Z,1013.6
2023-08-04T22:22:40.037Z,1013.7
2023-08-04T22:28:45.950Z,1013.7
2023-08-04T22:34:51.667Z,1013.6
2023-08-04T22:40:57.328Z,1013.6
2023-08-04T22:47:02.969Z,1013.8
2023-08-04T22:53:08.920Z,1013.6
2023-08-04T22:59:14.459Z,1013.4
2023-08-04T23:05:20.625Z,1013.4
2023-08-04T23:11:26.199Z,1013.4
2023-08-04T23:17:32.010Z,1013.4
2023-08-04T23:23:38.032Z,1013.3
2023-08-04T23:29:43.564Z,1013.2
2023-08-04T23:35:49.786Z,1013
2023-08-04T23:41:55.914Z,1012.9
2023-08-04T23:48:01.216Z,1012.9
2023-08-04T23:54:06.449Z,1013
